Latest Coastal Weather Observations for Weipa

IDQ60701

Issued at 4:42 pm EST Wednesday 24 August 2016 (issued every 10 minutes, with the page automatically refreshed every 10 minutes)

About coastal observations | Map of coastal stations | Coastal observations for QLD | Marine services | Other Formats
Station Details ID: 027045 Name: WEIPA AERO Lat: -12.68 Lon: 141.92 Height: 17.96 m
Data from the previous 72 hours. | See also: Recent months at Weipa
Date/Time
EST
Temp
°C
Wind Pressure Rain since
9am
mm
Weather Cloud Vis
km
Sea
Height
m
Swell
Dir  Spd
kts
Gust
kts
hPa Trend Height
m
Period
s
Dir
24/04:30pm 27.8 W 12 18 1008.2 - 0.0 - - 10 - - - -
24/04:00pm 28.4 W 12 21 1008.0 - 0.0 - - 10 - - - -
24/03:30pm 28.7 W 12 17 1008.0 - 0.0 - - 10 - - - -
24/03:00pm 29.5 W 10 16 1008.0 - 0.0 - - 10 - - - -
24/02:30pm 30.4 W 10 15 1008.3 - 0.0 - - 10 - - - -
24/02:00pm 30.7 W 9 15 1008.6 - 0.0 - - 10 - - - -
24/01:30pm 32.2 W 10 15 1008.9 - 0.0 - - 10 - - - -
24/01:00pm 32.3 SSW 4 7 1009.3 - 0.0 - - 10 - - - -
24/12:30pm 31.6 W 4 8 1009.8 - 0.0 - Partly cloudy 10 - - - -
24/12:00pm 32.1 S 3 7 1010.4 - 0.0 - Mostly clear 10 - - - -
24/11:30am 31.4 NNW 4 8 1011.0 - 0.0 - Partly cloudy 10 - - - -
24/11:00am 30.5 E 4 8 1011.4 - 0.0 - - 10 - - - -
24/10:30am 29.4 ENE 4 9 1011.8 - 0.0 - - 10 - - - -
24/10:00am 28.5 ENE 3 5 1012.1 - 0.0 - - 10 - - - -
24/09:30am 27.7 E 5 8 1012.2 - 0.0 - - 10 - - - -
24/09:00am 26.8 E 6 9 1012.0 - 0.0 - - 10 - - - -
24/08:30am 25.9 ESE 5 8 1011.9 - 0.0 - - 10 - - - -
24/08:00am 24.3 SSE 3 4 1011.7 - 0.0 - - 10 - - - -
24/07:30am 22.8 CALM 0 0 1011.5 - 0.0 - - 10 - - - -
24/07:00am 21.6 CALM 0 0 1011.2 - 0.0 - - 10 - - - -
24/06:30am 21.6 CALM 0 0 1010.8 - 0.0 - - 10 - - - -
24/06:00am 22.0 CALM 0 0 1010.3 - 0.0 - - 10 - - - -
24/05:30am 22.3 E 1 2 1010.3 - 0.0 - - 10 - - - -
24/05:00am 23.0 E 1 3 1010.1 - 0.0 - Partly cloudy 10 - - - -
24/04:30am 23.5 SE 2 3 1009.9 - 0.0 - Partly cloudy 10 - - - -
24/04:00am 23.5 E 3 4 1009.8 - 0.0 - Partly cloudy 10 - - - -
24/03:30am 23.7 SE 3 4 1009.9 - 0.0 - Cloudy 10 - - - -
24/03:00am 23.6 SE 3 5 1009.6 - 0.0 - Partly cloudy 10 - - - -
24/02:30am 23.9 ESE 3 4 1010.0 - 0.0 - Cloudy 10 - - - -
24/02:00am 23.9 ESE 3 4 1010.2 - 0.0 - Partly cloudy 10 - - - -
24/01:30am 24.0 E 3 3 1010.4 - 0.0 - Cloudy 10 - - - -
24/01:00am 24.2 E 4 6 1010.7 - 0.0 - Partly cloudy 10 - - - -
24/12:30am 24.2 ENE 5 8 1010.7 - 0.0 - Cloudy 10 - - - -
24/12:00am 23.9 ENE 3 4 1010.8 - 0.0 - Mostly clear 10 - - - -
 
Date/Time
EST
Temp
°C
Wind Pressure Rain since
9am
mm
Weather Cloud Vis
km
Sea
Height
m
Swell
Dir  Spd
kts
Gust
kts
hPa Trend Height
m
Period
s
Dir
23/11:30pm 24.4 ENE 1 3 1010.9 - 0.0 - - 10 - - - -
23/11:00pm 24.8 ENE 4 6 1010.8 - 0.0 - - 10 - - - -
23/10:30pm 25.4 ENE 5 10 1010.9 - 0.0 - Partly cloudy 10 - - - -
23/10:00pm 26.0 NE 5 8 1010.9 - 0.0 - Cloudy 10 - - - -
23/09:30pm 26.2 NE 5 8 1010.7 - 0.0 - Partly cloudy 10 - - - -
23/09:00pm 25.6 NE 3 4 1010.2 - 0.0 - - 10 - - - -
23/08:30pm 26.2 N 3 5 1009.8 - 0.0 - - 10 - - - -
23/08:00pm 26.2 N 3 4 1009.3 - 0.0 - Partly cloudy 10 - - - -
23/07:30pm 26.1 NW 5 6 1008.7 - 0.0 - Partly cloudy 10 - - - -
23/07:00pm 26.3 W 3 6 1008.1 - 0.0 - - 10 - - - -
23/06:30pm 26.9 W 4 7 1007.7 - 0.0 - - 10 - - - -
23/06:00pm 27.8 W 5 8 1007.1 - 0.0 - - 10 - - - -
23/05:30pm 28.0 W 6 9 1006.9 - 0.0 - - 10 - - - -
23/05:00pm 28.5 W 6 10 1006.8 - 0.0 - - 10 - - - -
23/04:30pm 29.4 W 7 11 1006.6 - 0.0 - - 10 - - - -
23/04:00pm 29.7 W 9 14 1006.6 - 0.0 - - 10 - - - -
23/03:30pm 31.4 NW 6 11 1006.5 - 0.0 - Partly cloudy 10 - - - -
23/03:00pm 32.9 E 5 11 1006.5 - 0.0 - - 10 - - - -
23/02:30pm 33.6 NNE 5 11 1007.1 - 0.0 - - 10 - - - -
23/02:00pm 33.3 ENE 5 10 1007.5 - 0.0 - Partly cloudy 10 - - - -
23/01:30pm 32.7 E 7 11 1008.1 - 0.0 - - 10 - - - -
23/01:00pm 32.2 E 6 12 1008.7 - 0.0 - - 10 - - - -
23/12:30pm 31.6 ESE 6 12 1009.5 - 0.0 - - 10 - - - -
23/12:00pm 30.9 E 5 15 1010.0 - 0.0 - - 10 - - - -
23/11:30am 29.5 ENE 6 12 1010.7 - 0.0 - - 10 - - - -
23/11:00am 29.1 E 9 13 1011.3 - 0.0 - - 10 - - - -
23/10:30am 28.3 E 9 13 1011.6 - 0.0 - - 10 - - - -
23/10:00am 27.4 ENE 11 14 1012.0 - 0.0 - Partly cloudy 10 - - - -
23/09:30am 26.1 E 8 13 1012.1 - 0.0 - - 10 - - - -
23/09:00am 25.4 E 9 12 1011.9 F 0.0 Haze Clear 30 - - - -
23/08:30am 23.6 ESE 7 9 1012.1 - 0.0 - - 10 - - - -
23/08:00am 22.3 SSE 3 4 1012.1 - 0.0 - - 10 - - - -
23/07:30am 21.1 SSE 1 2 1011.9 - 0.0 - - 10 - - - -
23/07:00am 19.6 CALM 0 0 1011.6 - 0.0 - - 10 - - - -
23/06:30am 19.8 SE 1 2 1011.1 - 0.0 - - 10 - - - -
23/06:00am 20.0 SE 2 4 1010.7 - 0.0 - - 10 - - - -
23/05:30am 19.8 S 2 3 1010.7 - 0.0 - - 10 - - - -
23/05:00am 20.0 CALM 0 0 1010.5 - 0.0 - - 10 - - - -
23/04:30am 20.1 CALM 0 0 1010.5 - 0.0 - - 10 - - - -
23/04:00am 20.2 CALM 0 0 1010.3 - 0.0 - - 10 - - - -
23/03:30am 20.2 CALM 0 0 1010.2 - 0.0 - - 10 - - - -
23/03:00am 20.4 CALM 0 0 1010.0 - 0.0 - - 10 - - - -
23/02:30am 20.7 CALM 0 0 1010.2 - 0.0 - - 10 - - - -
23/02:00am 21.0 CALM 0 0 1010.4 - 0.0 - - 10 - - - -
23/01:30am 21.7 CALM 0 0 1010.7 - 0.0 - - 10 - - - -
23/01:00am 22.3 SE 1 2 1011.0 - 0.0 - - 10 - - - -
23/12:30am 23.0 E 3 4 1011.2 - 0.0 - - 10 - - - -
23/12:00am 23.4 E 3 4 1011.4 - 0.0 - - 10 - - - -
 
Date/Time
EST
Temp
°C
Wind Pressure Rain since
9am
mm
Weather Cloud Vis
km
Sea
Height
m
Swell
Dir  Spd
kts
Gust
kts
hPa Trend Height
m
Period
s
Dir
22/11:30pm 24.0 E 4 6 1011.5 - 0.0 - - 10 - - - -
22/11:00pm 24.5 E 4 8 1011.7 - 0.0 - - 10 - - - -
22/10:30pm 25.0 E 6 9 1011.7 - 0.0 - Partly cloudy 10 - - - -
22/10:00pm 25.5 E 4 5 1011.5 - 0.0 - Cloudy 10 - - - -
22/09:30pm 25.9 E 2 5 1011.1 - 0.0 - - 10 - - - -
22/09:00pm 25.6 E 1 3 1010.7 - 0.0 - Mostly cloudy 10 - - - -
22/08:30pm 25.6 SSE 3 7 1010.3 - 0.0 - Partly cloudy 10 - - - -
22/08:00pm 26.0 S 1 3 1009.7 - 0.0 - Partly cloudy 10 - - - -
22/07:30pm 26.1 SW 1 3 1009.2 - 0.0 - Partly cloudy 10 - - - -
22/07:00pm 26.4 W 2 5 1008.6 - 0.0 - Partly cloudy 10 - - - -
22/06:30pm 26.8 W 4 6 1007.9 - 0.0 - Partly cloudy 10 - - - -
22/06:00pm 27.5 W 5 9 1007.4 - 0.0 - - 10 - - - -
22/05:30pm 28.7 W 6 10 1007.0 - 0.0 - Partly cloudy 10 - - - -
22/05:00pm 32.4 N 5 7 1006.6 - 0.0 - - 10 - - - -
22/04:30pm 32.4 E 6 10 1006.5 - 0.0 - - 10 - - - -
22/04:00pm 32.1 ENE 7 11 1006.6 - 0.0 - - 10 - - - -
22/03:30pm 32.9 N 3 6 1006.8 - 0.0 - - 10 - - - -
22/03:00pm 31.7 ENE 3 6 1007.0 - 0.0 - Mostly clear 10 - - - -
22/02:30pm 31.5 ENE 4 8 1007.6 - 0.0 - Partly cloudy 10 - - - -
22/02:00pm 32.5 SE 4 10 1008.0 - 0.0 - Cloudy 10 - - - -
22/01:30pm 31.6 ESE 6 10 1008.6 - 0.0 - Partly cloudy 10 - - - -
22/01:00pm 31.7 SE 4 11 1009.0 - 0.0 - Partly cloudy 10 - - - -
22/12:30pm 31.2 ESE 5 12 1009.7 - 0.0 - - 10 - - - -
22/12:00pm 30.1 E 7 12 1010.1 - 0.0 - - 10 - - - -
22/11:30am 29.7 ESE 6 14 1010.8 - 0.0 - - 10 - - - -
22/11:00am 28.9 E 8 12 1011.3 - 0.0 - - 10 - - - -
22/10:30am 28.3 E 9 15 1011.6 - 0.0 - - 10 - - - -
22/10:00am 26.4 E 7 11 1011.7 - 0.0 - - 10 - - - -
22/09:30am 25.9 E 9 15 1011.8 - 0.0 - - 10 - - - -
22/09:00am 24.4 ESE 6 10 1011.7 F 0.0 Haze Clear 30 - - - -
22/08:30am 23.5 ESE 6 9 1011.7 - 0.0 - - 10 - - - -
22/08:00am 21.6 SE 3 5 1011.6 - 0.0 - - 10 - - - -
22/07:30am 20.1 SSE 2 4 1011.5 - 0.0 - - 10 - - - -
22/07:00am 18.7 SE 2 3 1011.4 - 0.0 - - 10 - - - -
22/06:30am 18.4 SE 2 3 1011.1 - 0.0 - - 10 - - - -
22/06:00am 18.5 SE 1 2 1010.7 - 0.0 - - 9 - - - -
22/05:30am 18.5 SE 1 1 1010.6 - 0.0 - - 7 - - - -
22/05:00am 18.5 ESE 1 2 1010.4 - 0.0 - - 8 - - - -
22/04:30am 18.4 CALM 0 0 1010.4 - 0.0 - - 10 - - - -
22/04:00am 18.4 CALM 0 0 1010.4 - 0.0 - - 10 - - - -
22/03:30am 18.7 CALM 0 0 1010.4 - 0.0 - - 10 - - - -
22/03:00am 18.9 CALM 0 0 1010.2 - 0.0 - - 10 - - - -
22/02:30am 19.0 CALM 0 1 1010.5 - 0.0 - - 10 - - - -
22/02:00am 19.8 ESE 2 2 1010.6 - 0.0 - - 10 - - - -
22/01:30am 20.1 ESE 1 2 1010.8 - 0.0 - - 10 - - - -
22/01:00am 20.2 CALM 0 0 1011.1 - 0.0 - - 10 - - - -
22/12:30am 20.8 CALM 0 1 1011.3 - 0.0 - - 10 - - - -
22/12:00am 22.2 E 3 4 1011.5 - 0.0 - - 10 - - - -
 
Date/Time
EST
Temp
°C
Wind Pressure Rain since
9am
mm
Weather Cloud Vis
km
Sea
Height
m
Swell
Dir  Spd
kts
Gust
kts
hPa Trend Height
m
Period
s
Dir
21/11:30pm 22.5 ENE 3 4 1011.5 - 0.0 - - 10 - - - -
21/11:00pm 23.0 ENE 2 3 1011.5 - 0.0 - - 10 - - - -
21/10:30pm 23.7 E 3 5 1011.3 - 0.0 - - 10 - - - -
21/10:00pm 24.2 E 5 7 1011.1 - 0.0 - - 10 - - - -
21/09:30pm 24.8 E 5 9 1011.1 - 0.0 - - 10 - - - -
21/09:00pm 25.6 E 6 10 1010.8 - 0.0 - - 10 - - - -
21/08:30pm 26.3 E 8 12 1010.7 - 0.0 - Partly cloudy 10 - - - -
21/08:00pm 26.7 ENE 5 9 1010.1 - 0.0 - - 10 - - - -
21/07:30pm 26.8 E 5 9 1009.6 - 0.0 - - 10 - - - -
21/07:00pm 26.1 NW 3 5 1008.8 - 0.0 - - 10 - - - -
21/06:30pm 26.9 W 5 10 1008.6 - 0.0 - Partly cloudy 10 - - - -
21/06:00pm 31.1 ENE 6 9 1008.1 - 0.0 - Mostly clear 10 - - - -
21/05:30pm 31.4 ENE 5 10 1007.7 - 0.0 - Partly cloudy 10 - - - -
21/05:00pm 31.5 E 5 7 1007.7 - 0.0 - - 10 - - - -

Other Formats:

Comma delimited format used in spreadsheet applications
http://www.bom.gov.au/fwo/IDQ60701/IDQ60701.94170.axf

JavaScript Object Notation format (JSON) in row-major order
http://www.bom.gov.au/fwo/IDQ60701/IDQ60701.94170.json